Marion, Alabama
Current Conditions -  °F | °C
As of 11:55 AM on Tuesday 21 Oct 2014 (Local Time) from KSEM Reporting Station
Clear Clear  
Wind Chill: 73°   Ceiling: Unl
Heat Index: 73°   Visibility: 10mi
Dew Point: 54°   Wind: 3mph
Humidity: 50%   Direction: NA
Pressure: 30.05"   Gusts: NA
Location:  32.63°N, 87.32°W
Report Text: KSEM 211655Z AUTO VRB03KT 10SM CLR 23/12 A3005 RMK AO2
Loading
Personal Weather Stations






























Interactive Weather Map
Tropical Storm Tracking
New forecast layout! Learn more

10-Day Weather Forecast

Advertisements
Track Severe Weather on mobile